sensor_id;sensor_type;location;lat;lon;timestamp;pressure;altitude;pressure_sealevel;temperature;humidity
59103;BME280;43999;51.660;5.616;2022-07-23T00:00:31;101699.34;;;16.42;100.00
59103;BME280;43999;51.660;5.616;2022-07-23T00:03:05;101690.84;;;16.37;100.00
59103;BME280;43999;51.660;5.616;2022-07-23T00:05:33;101694.66;;;16.33;100.00
59103;BME280;43999;51.660;5.616;2022-07-23T00:08:03;101690.41;;;16.30;100.00
59103;BME280;43999;51.660;5.616;2022-07-23T00:10:33;101686.25;;;16.26;100.00
59103;BME280;43999;51.660;5.616;2022-07-23T00:13:00;101688.25;;;16.23;100.00
59103;BME280;43999;51.660;5.616;2022-07-23T00:15:28;101688.63;;;16.17;100.00
59103;BME280;43999;51.660;5.616;2022-07-23T00:17:56;101696.66;;;16.15;100.00
59103;BME280;43999;51.660;5.616;2022-07-23T00:20:23;101691.56;;;16.12;100.00
59103;BME280;43999;51.660;5.616;2022-07-23T00:22:52;101699.88;;;16.06;100.00
59103;BME280;43999;51.660;5.616;2022-07-23T00:25:24;101695.84;;;16.00;100.00
59103;BME280;43999;51.660;5.616;2022-07-23T00:27:58;101693.56;;;15.94;100.00
59103;BME280;43999;51.660;5.616;2022-07-23T00:30:27;101693.97;;;15.88;100.00
59103;BME280;43999;51.660;5.616;2022-07-23T00:33:05;101696.78;;;15.85;100.00
59103;BME280;43999;51.660;5.616;2022-07-23T00:35:37;101691.81;;;15.80;100.00
59103;BME280;43999;51.660;5.616;2022-07-23T00:38:11;101690.28;;;15.76;100.00
59103;BME280;43999;51.660;5.616;2022-07-23T00:40:39;101682.53;;;15.73;100.00
59103;BME280;43999;51.660;5.616;2022-07-23T00:43:07;101682.72;;;15.70;100.00
59103;BME280;43999;51.660;5.616;2022-07-23T00:45:34;101686.31;;;15.69;100.00
59103;BME280;43999;51.660;5.616;2022-07-23T00:48:04;101680.38;;;15.65;100.00
59103;BME280;43999;51.660;5.616;2022-07-23T00:50:31;101685.00;;;15.62;100.00
59103;BME280;43999;51.660;5.616;2022-07-23T00:52:59;101688.69;;;15.59;100.00
59103;BME280;43999;51.660;5.616;2022-07-23T00:55:26;101676.59;;;15.55;100.00
59103;BME280;43999;51.660;5.616;2022-07-23T00:57:55;101683.78;;;15.53;100.00
59103;BME280;43999;51.660;5.616;2022-07-23T01:00:24;101685.66;;;15.51;100.00
59103;BME280;43999;51.660;5.616;2022-07-23T01:02:52;101683.13;;;15.49;100.00
59103;BME280;43999;51.660;5.616;2022-07-23T01:05:19;101683.41;;;15.45;100.00
59103;BME280;43999;51.660;5.616;2022-07-23T01:07:51;101676.78;;;15.37;100.00
59103;BME280;43999;51.660;5.616;2022-07-23T01:10:23;101677.06;;;15.33;100.00
59103;BME280;43999;51.660;5.616;2022-07-23T01:13:09;101677.25;;;15.30;100.00
59103;BME280;43999;51.660;5.616;2022-07-23T01:15:39;101675.53;;;15.29;100.00
59103;BME280;43999;51.660;5.616;2022-07-23T01:18:07;101671.31;;;15.26;100.00
59103;BME280;43999;51.660;5.616;2022-07-23T01:20:37;101674.88;;;15.25;100.00
59103;BME280;43999;51.660;5.616;2022-07-23T01:23:05;101667.06;;;15.23;100.00
59103;BME280;43999;51.660;5.616;2022-07-23T01:25:36;101678.56;;;15.22;100.00
59103;BME280;43999;51.660;5.616;2022-07-23T01:28:05;101674.22;;;15.21;100.00
59103;BME280;43999;51.660;5.616;2022-07-23T01:30:32;101672.63;;;15.19;100.00
59103;BME280;43999;51.660;5.616;2022-07-23T01:33:03;101669.31;;;15.15;100.00
59103;BME280;43999;51.660;5.616;2022-07-23T01:35:31;101676.56;;;15.12;100.00
59103;BME280;43999;51.660;5.616;2022-07-23T01:38:02;101674.28;;;15.05;100.00
59103;BME280;43999;51.660;5.616;2022-07-23T01:40:30;101666.53;;;15.02;100.00
59103;BME280;43999;51.660;5.616;2022-07-23T01:42:58;101661.53;;;14.98;100.00
59103;BME280;43999;51.660;5.616;2022-07-23T01:45:27;101663.53;;;14.94;100.00
59103;BME280;43999;51.660;5.616;2022-07-23T01:47:55;101665.41;;;14.92;100.00
59103;BME280;43999;51.660;5.616;2022-07-23T01:50:22;101667.28;;;14.90;100.00
59103;BME280;43999;51.660;5.616;2022-07-23T01:53:03;101663.78;;;14.90;100.00
59103;BME280;43999;51.660;5.616;2022-07-23T01:55:30;101660.50;;;14.86;100.00
59103;BME280;43999;51.660;5.616;2022-07-23T01:57:58;101667.53;;;14.85;100.00
59103;BME280;43999;51.660;5.616;2022-07-23T02:00:28;101667.53;;;14.85;100.00
59103;BME280;43999;51.660;5.616;2022-07-23T02:02:55;101666.78;;;14.83;100.00
59103;BME280;43999;51.660;5.616;2022-07-23T02:05:26;101666.88;;;14.82;100.00
59103;BME280;43999;51.660;5.616;2022-07-23T02:07:56;101676.69;;;14.80;100.00
59103;BME280;43999;51.660;5.616;2022-07-23T02:10:25;101673.44;;;14.75;100.00
59103;BME280;43999;51.660;5.616;2022-07-23T02:12:53;101665.63;;;14.73;100.00
59103;BME280;43999;51.660;5.616;2022-07-23T02:15:21;101659.78;;;14.68;100.00
59103;BME280;43999;51.660;5.616;2022-07-23T02:17:48;101660.78;;;14.65;100.00
59103;BME280;43999;51.660;5.616;2022-07-23T02:20:15;101654.00;;;14.61;100.00
59103;BME280;43999;51.660;5.616;2022-07-23T02:22:43;101647.03;;;14.60;100.00
59103;BME280;43999;51.660;5.616;2022-07-23T02:25:10;101653.19;;;14.59;100.00
59103;BME280;43999;51.660;5.616;2022-07-23T02:27:38;101655.09;;;14.57;100.00
59103;BME280;43999;51.660;5.616;2022-07-23T02:30:06;101656.97;;;14.55;100.00
59103;BME280;43999;51.660;5.616;2022-07-23T02:32:35;101654.41;;;14.53;100.00
59103;BME280;43999;51.660;5.616;2022-07-23T02:35:04;101649.25;;;14.52;100.00
59103;BME280;43999;51.660;5.616;2022-07-23T02:37:32;101648.56;;;14.48;100.00
59103;BME280;43999;51.660;5.616;2022-07-23T02:40:00;101645.06;;;14.48;100.00
59103;BME280;43999;51.660;5.616;2022-07-23T02:42:30;101647.88;;;14.45;100.00
59103;BME280;43999;51.660;5.616;2022-07-23T02:44:57;101653.31;;;14.42;100.00
59103;BME280;43999;51.660;5.616;2022-07-23T02:47:25;101649.19;;;14.38;100.00
59103;BME280;43999;51.660;5.616;2022-07-23T02:49:52;101656.31;;;14.35;100.00
59103;BME280;43999;51.660;5.616;2022-07-23T02:52:19;101657.34;;;14.33;100.00
59103;BME280;43999;51.660;5.616;2022-07-23T02:54:47;101662.88;;;14.28;100.00
59103;BME280;43999;51.660;5.616;2022-07-23T02:57:16;101666.63;;;14.24;100.00
59103;BME280;43999;51.660;5.616;2022-07-23T02:59:43;101670.28;;;14.22;100.00
59103;BME280;43999;51.660;5.616;2022-07-23T03:02:10;101669.53;;;14.20;100.00
59103;BME280;43999;51.660;5.616;2022-07-23T03:04:38;101672.31;;;14.16;100.00
59103;BME280;43999;51.660;5.616;2022-07-23T03:07:05;101670.78;;;14.12;100.00
59103;BME280;43999;51.660;5.616;2022-07-23T03:09:32;101670.13;;;14.09;100.00
59103;BME280;43999;51.660;5.616;2022-07-23T03:11:59;101671.22;;;14.05;100.00
59103;BME280;43999;51.660;5.616;2022-07-23T03:14:27;101673.25;;;13.99;100.00
59103;BME280;43999;51.660;5.616;2022-07-23T03:16:55;101676.06;;;13.96;100.00
59103;BME280;43999;51.660;5.616;2022-07-23T03:19:23;101674.59;;;13.91;100.00
59103;BME280;43999;51.660;5.616;2022-07-23T03:21:51;101672.06;;;13.89;100.00
59103;BME280;43999;51.660;5.616;2022-07-23T03:24:18;101673.94;;;13.87;100.00
59103;BME280;43999;51.660;5.616;2022-07-23T03:26:46;101681.91;;;13.86;100.00
59103;BME280;43999;51.660;5.616;2022-07-23T03:29:13;101682.75;;;13.86;100.00
59103;BME280;43999;51.660;5.616;2022-07-23T03:31:41;101680.13;;;13.86;100.00
59103;BME280;43999;51.660;5.616;2022-07-23T03:34:09;101684.53;;;13.86;100.00
59103;BME280;43999;51.660;5.616;2022-07-23T03:36:36;101684.63;;;13.84;100.00
59103;BME280;43999;51.660;5.616;2022-07-23T03:39:05;101676.81;;;13.83;100.00
59103;BME280;43999;51.660;5.616;2022-07-23T03:41:38;101675.19;;;13.80;100.00
59103;BME280;43999;51.660;5.616;2022-07-23T03:44:05;101677.06;;;13.78;100.00
59103;BME280;43999;51.660;5.616;2022-07-23T03:46:33;101683.34;;;13.75;100.00
59103;BME280;43999;51.660;5.616;2022-07-23T03:49:00;101685.28;;;13.72;100.00
59103;BME280;43999;51.660;5.616;2022-07-23T03:51:28;101685.47;;;13.69;100.00
59103;BME280;43999;51.660;5.616;2022-07-23T03:53:56;101683.75;;;13.68;100.00
59103;BME280;43999;51.660;5.616;2022-07-23T03:56:23;101680.34;;;13.66;100.00
59103;BME280;43999;51.660;5.616;2022-07-23T03:58:51;101677.81;;;13.64;100.00
59103;BME280;43999;51.660;5.616;2022-07-23T04:01:18;101688.34;;;13.64;100.00
59103;BME280;43999;51.660;5.616;2022-07-23T04:03:45;101682.22;;;13.63;100.00
59103;BME280;43999;51.660;5.616;2022-07-23T04:06:13;101681.34;;;13.63;100.00
59103;BME280;43999;51.660;5.616;2022-07-23T04:08:40;101682.22;;;13.63;100.00
59103;BME280;43999;51.660;5.616;2022-07-23T04:11:08;101682.31;;;13.62;100.00
59103;BME280;43999;51.660;5.616;2022-07-23T04:13:35;101688.50;;;13.61;100.00
59103;BME280;43999;51.660;5.616;2022-07-23T04:16:03;101681.53;;;13.60;100.00
59103;BME280;43999;51.660;5.616;2022-07-23T04:18:31;101684.22;;;13.58;100.00
59103;BME280;43999;51.660;5.616;2022-07-23T04:21:19;101689.50;;;13.58;100.00
59103;BME280;43999;51.660;5.616;2022-07-23T04:23:48;101694.78;;;13.58;100.00
59103;BME280;43999;51.660;5.616;2022-07-23T04:26:15;101692.06;;;13.60;100.00
59103;BME280;43999;51.660;5.616;2022-07-23T04:28:45;101698.09;;;13.62;100.00
59103;BME280;43999;51.660;5.616;2022-07-23T04:31:13;101692.75;;;13.63;100.00
59103;BME280;43999;51.660;5.616;2022-07-23T04:33:40;101697.06;;;13.65;100.00
59103;BME280;43999;51.660;5.616;2022-07-23T04:36:09;101696.16;;;13.66;100.00
59103;BME280;43999;51.660;5.616;2022-07-23T04:38:36;101697.00;;;13.66;100.00
59103;BME280;43999;51.660;5.616;2022-07-23T04:41:04;101703.81;;;13.70;100.00
59103;BME280;43999;51.660;5.616;2022-07-23T04:43:31;101700.25;;;13.71;100.00
59103;BME280;43999;51.660;5.616;2022-07-23T04:45:59;101707.28;;;13.71;100.00
59103;BME280;43999;51.660;5.616;2022-07-23T04:48:27;101702.72;;;13.74;100.00
59103;BME280;43999;51.660;5.616;2022-07-23T04:51:04;101704.78;;;13.85;100.00
59103;BME280;43999;51.660;5.616;2022-07-23T04:53:31;101708.44;;;13.98;100.00
59103;BME280;43999;51.660;5.616;2022-07-23T04:56:00;101710.41;;;14.11;100.00
59103;BME280;43999;51.660;5.616;2022-07-23T04:58:29;101714.41;;;14.18;100.00
59103;BME280;43999;51.660;5.616;2022-07-23T05:00:58;101716.72;;;14.24;100.00
59103;BME280;43999;51.660;5.616;2022-07-23T05:03:27;101716.44;;;14.29;100.00
59103;BME280;43999;51.660;5.616;2022-07-23T05:05:54;101718.91;;;14.32;100.00
59103;BME280;43999;51.660;5.616;2022-07-23T05:08:22;101713.38;;;14.37;100.00
59103;BME280;43999;51.660;5.616;2022-07-23T05:10:53;101714.84;;;14.42;100.00
59103;BME280;43999;51.660;5.616;2022-07-23T05:13:20;101726.16;;;14.44;100.00
59103;BME280;43999;51.660;5.616;2022-07-23T05:15:50;101717.97;;;14.49;100.00
59103;BME280;43999;51.660;5.616;2022-07-23T05:18:18;101725.63;;;14.53;100.00
59103;BME280;43999;51.660;5.616;2022-07-23T05:20:46;101721.03;;;14.57;100.00
59103;BME280;43999;51.660;5.616;2022-07-23T05:23:18;101721.53;;;14.64;100.00
59103;BME280;43999;51.660;5.616;2022-07-23T05:25:47;101719.59;;;14.67;100.00
59103;BME280;43999;51.660;5.616;2022-07-23T05:28:15;101729.88;;;14.72;100.00
59103;BME280;43999;51.660;5.616;2022-07-23T05:30:47;101727.00;;;14.77;100.00
59103;BME280;43999;51.660;5.616;2022-07-23T05:33:19;101736.31;;;14.82;100.00
59103;BME280;43999;51.660;5.616;2022-07-23T05:35:47;101733.41;;;14.87;100.00
59103;BME280;43999;51.660;5.616;2022-07-23T05:38:27;101737.41;;;14.94;100.00
59103;BME280;43999;51.660;5.616;2022-07-23T05:40:58;101741.69;;;14.97;100.00
59103;BME280;43999;51.660;5.616;2022-07-23T05:43:27;101744.03;;;15.01;100.00
59103;BME280;43999;51.660;5.616;2022-07-23T05:45:56;101749.16;;;15.04;100.00
59103;BME280;43999;51.660;5.616;2022-07-23T05:48:23;101741.88;;;15.08;100.00
59103;BME280;43999;51.660;5.616;2022-07-23T05:51:12;101746.06;;;15.12;100.00
59103;BME280;43999;51.660;5.616;2022-07-23T05:53:39;101748.44;;;15.17;100.00
59103;BME280;43999;51.660;5.616;2022-07-23T05:56:14;101757.84;;;15.21;100.00
59103;BME280;43999;51.660;5.616;2022-07-23T05:58:43;101760.31;;;15.24;100.00
59103;BME280;43999;51.660;5.616;2022-07-23T06:01:11;101753.91;;;15.28;100.00
59103;BME280;43999;51.660;5.616;2022-07-23T06:03:45;101750.91;;;15.34;100.00
59103;BME280;43999;51.660;5.616;2022-07-23T06:06:13;101760.19;;;15.41;100.00
59103;BME280;43999;51.660;5.616;2022-07-23T06:08:41;101762.28;;;15.51;100.00
59103;BME280;43999;51.660;5.616;2022-07-23T06:11:09;101770.66;;;15.57;100.00
59103;BME280;43999;51.660;5.616;2022-07-23T06:13:36;101769.63;;;15.60;100.00
59103;BME280;43999;51.660;5.616;2022-07-23T06:16:04;101767.38;;;15.68;100.00
59103;BME280;43999;51.660;5.616;2022-07-23T06:18:31;101768.56;;;15.79;100.00
59103;BME280;43999;51.660;5.616;2022-07-23T06:20:59;101770.50;;;15.89;100.00
59103;BME280;43999;51.660;5.616;2022-07-23T06:23:27;101765.53;;;15.99;100.00
59103;BME280;43999;51.660;5.616;2022-07-23T06:25:54;101764.97;;;16.08;100.00
59103;BME280;43999;51.660;5.616;2022-07-23T06:28:21;101775.78;;;16.18;100.00
59103;BME280;43999;51.660;5.616;2022-07-23T06:30:50;101777.75;;;16.29;100.00
59103;BME280;43999;51.660;5.616;2022-07-23T06:33:17;101772.72;;;16.39;100.00
59103;BME280;43999;51.660;5.616;2022-07-23T06:35:44;101766.22;;;16.44;100.00
59103;BME280;43999;51.660;5.616;2022-07-23T06:38:12;101773.75;;;16.51;100.00
59103;BME280;43999;51.660;5.616;2022-07-23T06:40:42;101773.47;;;16.55;100.00
59103;BME280;43999;51.660;5.616;2022-07-23T06:43:10;101778.47;;;16.60;100.00
59103;BME280;43999;51.660;5.616;2022-07-23T06:45:38;101775.22;;;16.69;100.00
59103;BME280;43999;51.660;5.616;2022-07-23T06:48:05;101774.91;;;16.74;100.00
59103;BME280;43999;51.660;5.616;2022-07-23T06:50:33;101781.72;;;16.78;100.00
59103;BME280;43999;51.660;5.616;2022-07-23T06:53:01;101787.38;;;16.86;100.00
59103;BME280;43999;51.660;5.616;2022-07-23T06:55:28;101783.50;;;16.92;100.00
59103;BME280;43999;51.660;5.616;2022-07-23T06:57:55;101778.75;;;16.97;100.00
59103;BME280;43999;51.660;5.616;2022-07-23T07:00:23;101772.94;;;17.05;100.00
59103;BME280;43999;51.660;5.616;2022-07-23T07:02:54;101775.81;;;17.14;100.00
59103;BME280;43999;51.660;5.616;2022-07-23T07:05:22;101774.25;;;17.25;100.00
59103;BME280;43999;51.660;5.616;2022-07-23T07:07:50;101773.63;;;17.34;100.00
59103;BME280;43999;51.660;5.616;2022-07-23T07:10:17;101778.41;;;17.42;100.00
59103;BME280;43999;51.660;5.616;2022-07-23T07:12:45;101770.16;;;17.46;98.84
59103;BME280;43999;51.660;5.616;2022-07-23T07:15:12;101774.81;;;17.55;98.86
59103;BME280;43999;51.660;5.616;2022-07-23T07:17:39;101775.34;;;17.61;97.69
59103;BME280;43999;51.660;5.616;2022-07-23T07:20:10;101778.72;;;17.63;99.12
59103;BME280;43999;51.660;5.616;2022-07-23T07:22:38;101779.59;;;17.63;99.62
59103;BME280;43999;51.660;5.616;2022-07-23T07:25:07;101774.59;;;17.71;98.73
59103;BME280;43999;51.660;5.616;2022-07-23T07:27:35;101778.41;;;17.80;97.63
59103;BME280;43999;51.660;5.616;2022-07-23T07:30:04;101773.34;;;17.90;96.88
59103;BME280;43999;51.660;5.616;2022-07-23T07:32:32;101778.13;;;17.98;97.79
59103;BME280;43999;51.660;5.616;2022-07-23T07:35:19;101769.50;;;18.07;93.25
59103;BME280;43999;51.660;5.616;2022-07-23T07:37:46;101767.47;;;18.10;93.30
59103;BME280;43999;51.660;5.616;2022-07-23T07:40:14;101770.56;;;18.17;92.85
59103;BME280;43999;51.660;5.616;2022-07-23T07:42:46;101778.81;;;18.25;90.69
59103;BME280;43999;51.660;5.616;2022-07-23T07:45:15;101780.06;;;18.33;89.52
59103;BME280;43999;51.660;5.616;2022-07-23T07:47:42;101779.75;;;18.37;88.88
59103;BME280;43999;51.660;5.616;2022-07-23T07:50:10;101788.66;;;18.36;89.24
59103;BME280;43999;51.660;5.616;2022-07-23T07:52:39;101792.13;;;18.37;90.83
59103;BME280;43999;51.660;5.616;2022-07-23T07:55:08;101800.53;;;18.43;91.66
59103;BME280;43999;51.660;5.616;2022-07-23T07:57:37;101799.00;;;18.52;93.21
59103;BME280;43999;51.660;5.616;2022-07-23T08:00:07;101799.94;;;18.64;91.89
59103;BME280;43999;51.660;5.616;2022-07-23T08:02:45;101793.59;;;18.78;87.64
59103;BME280;43999;51.660;5.616;2022-07-23T08:05:26;101792.50;;;18.93;85.99
59103;BME280;43999;51.660;5.616;2022-07-23T08:07:58;101801.81;;;18.99;85.42
59103;BME280;43999;51.660;5.616;2022-07-23T08:10:27;101801.34;;;19.05;84.97
59103;BME280;43999;51.660;5.616;2022-07-23T08:12:56;101798.13;;;19.13;85.08
59103;BME280;43999;51.660;5.616;2022-07-23T08:15:28;101798.78;;;19.28;83.81
59103;BME280;43999;51.660;5.616;2022-07-23T08:17:57;101802.00;;;19.56;84.22
59103;BME280;43999;51.660;5.616;2022-07-23T08:20:25;101803.97;;;19.87;85.01
59103;BME280;43999;51.660;5.616;2022-07-23T08:22:58;101806.88;;;20.18;84.16
59103;BME280;43999;51.660;5.616;2022-07-23T08:25:30;101807.34;;;20.57;83.56
59103;BME280;43999;51.660;5.616;2022-07-23T08:28:01;101805.66;;;21.00;78.58
59103;BME280;43999;51.660;5.616;2022-07-23T08:30:32;101801.75;;;21.25;76.64
59103;BME280;43999;51.660;5.616;2022-07-23T08:33:04;101804.72;;;21.43;76.08
59103;BME280;43999;51.660;5.616;2022-07-23T08:35:43;101814.00;;;21.70;73.46
59103;BME280;43999;51.660;5.616;2022-07-23T08:38:18;101817.56;;;22.01;73.08
59103;BME280;43999;51.660;5.616;2022-07-23T08:40:51;101818.41;;;22.33;73.33
59103;BME280;43999;51.660;5.616;2022-07-23T08:43:28;101813.28;;;22.70;69.02
59103;BME280;43999;51.660;5.616;2022-07-23T08:45:59;101819.06;;;23.05;67.26
59103;BME280;43999;51.660;5.616;2022-07-23T08:48:31;101825.13;;;23.36;65.03
59103;BME280;43999;51.660;5.616;2022-07-23T08:51:02;101814.38;;;23.56;63.96
59103;BME280;43999;51.660;5.616;2022-07-23T08:53:32;101818.25;;;23.81;63.04
59103;BME280;43999;51.660;5.616;2022-07-23T08:56:04;101834.00;;;24.04;62.33
59103;BME280;43999;51.660;5.616;2022-07-23T08:58:34;101823.59;;;24.28;60.19
59103;BME280;43999;51.660;5.616;2022-07-23T09:01:02;101825.00;;;24.50;58.44
59103;BME280;43999;51.660;5.616;2022-07-23T09:03:33;101831.28;;;24.69;60.13
59103;BME280;43999;51.660;5.616;2022-07-23T09:06:02;101831.22;;;24.79;58.29
59103;BME280;43999;51.660;5.616;2022-07-23T09:08:42;101832.22;;;24.78;56.07
59103;BME280;43999;51.660;5.616;2022-07-23T09:11:15;101824.41;;;24.57;56.91
59103;BME280;43999;51.660;5.616;2022-07-23T09:13:54;101829.59;;;24.40;57.06
59103;BME280;43999;51.660;5.616;2022-07-23T09:16:29;101822.75;;;24.28;58.01
59103;BME280;43999;51.660;5.616;2022-07-23T09:19:03;101822.19;;;24.24;58.21
59103;BME280;43999;51.660;5.616;2022-07-23T09:21:34;101819.41;;;24.16;57.81
59103;BME280;43999;51.660;5.616;2022-07-23T09:24:07;101824.25;;;24.03;57.62
59103;BME280;43999;51.660;5.616;2022-07-23T09:26:47;101821.38;;;23.86;56.61
59103;BME280;43999;51.660;5.616;2022-07-23T09:29:25;101819.31;;;23.70;56.36
59103;BME280;43999;51.660;5.616;2022-07-23T09:34:33;101807.28;;;23.74;57.50
59103;BME280;43999;51.660;5.616;2022-07-23T09:37:18;101812.88;;;24.01;57.43
59103;BME280;43999;51.660;5.616;2022-07-23T09:39:47;101817.63;;;24.07;56.93
59103;BME280;43999;51.660;5.616;2022-07-23T09:42:25;101805.34;;;24.14;58.17
59103;BME280;43999;51.660;5.616;2022-07-23T09:44:56;101819.03;;;24.39;58.34
59103;BME280;43999;51.660;5.616;2022-07-23T09:47:28;101811.06;;;24.75;57.35
59103;BME280;43999;51.660;5.616;2022-07-23T09:50:08;101813.13;;;25.17;54.56
59103;BME280;43999;51.660;5.616;2022-07-23T09:52:47;101810.84;;;25.48;54.47
59103;BME280;43999;51.660;5.616;2022-07-23T09:55:18;101809.19;;;25.73;51.92
59103;BME280;43999;51.660;5.616;2022-07-23T09:57:47;101812.31;;;25.95;53.36
59103;BME280;43999;51.660;5.616;2022-07-23T10:00:18;101819.88;;;26.26;51.51
59103;BME280;43999;51.660;5.616;2022-07-23T10:02:47;101815.56;;;26.50;49.92
59103;BME280;43999;51.660;5.616;2022-07-23T10:05:29;101826.19;;;26.68;49.91
59103;BME280;43999;51.660;5.616;2022-07-23T10:07:58;101821.34;;;26.71;49.43
59103;BME280;43999;51.660;5.616;2022-07-23T10:10:47;101821.03;;;26.74;48.12
59103;BME280;43999;51.660;5.616;2022-07-23T10:13:35;101822.22;;;26.88;47.81
59103;BME280;43999;51.660;5.616;2022-07-23T10:16:30;101816.84;;;27.13;47.89
59103;BME280;43999;51.660;5.616;2022-07-23T10:18:58;101818.19;;;27.25;47.20
59103;BME280;43999;51.660;5.616;2022-07-23T10:21:58;101817.00;;;27.19;45.91
59103;BME280;43999;51.660;5.616;2022-07-23T10:28:15;101810.28;;;27.07;46.94
59103;BME280;43999;51.660;5.616;2022-07-23T10:31:00;101811.94;;;27.00;46.18
59103;BME280;43999;51.660;5.616;2022-07-23T10:39:34;101820.66;;;27.68;45.51
59103;BME280;43999;51.660;5.616;2022-07-23T10:42:13;101817.94;;;27.84;45.03
59103;BME280;43999;51.660;5.616;2022-07-23T10:44:45;101814.66;;;28.05;44.90
59103;BME280;43999;51.660;5.616;2022-07-23T10:47:29;101815.00;;;28.11;43.50
59103;BME280;43999;51.660;5.616;2022-07-23T10:50:35;101809.03;;;28.23;44.63
59103;BME280;43999;51.660;5.616;2022-07-23T10:53:14;101811.78;;;28.47;44.06
59103;BME280;43999;51.660;5.616;2022-07-23T10:55:48;101819.44;;;28.58;43.79
59103;BME280;43999;51.660;5.616;2022-07-23T10:58:23;101813.00;;;28.75;42.97
59103;BME280;43999;51.660;5.616;2022-07-23T11:01:36;101813.53;;;28.94;42.06
59103;BME280;43999;51.660;5.616;2022-07-23T11:04:05;101812.31;;;28.96;42.17
59103;BME280;43999;51.660;5.616;2022-07-23T11:09:41;101816.69;;;29.21;40.27
59103;BME280;43999;51.660;5.616;2022-07-23T11:15:14;101824.59;;;29.22;39.53
59103;BME280;43999;51.660;5.616;2022-07-23T11:20:26;101814.91;;;28.90;39.62
59103;BME280;43999;51.660;5.616;2022-07-23T11:22:58;101816.81;;;28.81;40.89
59103;BME280;43999;51.660;5.616;2022-07-23T11:28:08;101827.00;;;28.71;41.20
59103;BME280;43999;51.660;5.616;2022-07-23T11:30:45;101816.06;;;28.64;41.17
59103;BME280;43999;51.660;5.616;2022-07-23T11:35:59;101812.81;;;28.77;40.98
59103;BME280;43999;51.660;5.616;2022-07-23T11:38:31;101811.19;;;28.68;41.72
59103;BME280;43999;51.660;5.616;2022-07-23T11:40:59;101809.44;;;28.43;42.02
59103;BME280;43999;51.660;5.616;2022-07-23T11:43:27;101808.28;;;28.06;42.07
59103;BME280;43999;51.660;5.616;2022-07-23T11:45:59;101810.22;;;27.73;41.35
59103;BME280;43999;51.660;5.616;2022-07-23T11:48:29;101805.22;;;27.53;41.82
59103;BME280;43999;51.660;5.616;2022-07-23T11:51:05;101809.13;;;27.34;41.95
59103;BME280;43999;51.660;5.616;2022-07-23T11:53:33;101804.56;;;27.18;41.43
59103;BME280;43999;51.660;5.616;2022-07-23T11:56:10;101799.19;;;26.94;42.33
59103;BME280;43999;51.660;5.616;2022-07-23T11:58:39;101798.50;;;26.67;43.41
59103;BME280;43999;51.660;5.616;2022-07-23T12:01:22;101804.50;;;26.61;43.08
59103;BME280;43999;51.660;5.616;2022-07-23T12:03:51;101800.13;;;26.60;43.68
59103;BME280;43999;51.660;5.616;2022-07-23T12:06:19;101802.31;;;26.56;43.16
59103;BME280;43999;51.660;5.616;2022-07-23T12:08:46;101806.31;;;26.52;43.20
59103;BME280;43999;51.660;5.616;2022-07-23T12:11:14;101797.75;;;26.48;43.55
59103;BME280;43999;51.660;5.616;2022-07-23T12:13:41;101798.72;;;26.39;43.99
59103;BME280;43999;51.660;5.616;2022-07-23T12:16:09;101796.00;;;26.23;43.24
59103;BME280;43999;51.660;5.616;2022-07-23T12:18:36;101795.31;;;26.21;43.96
59103;BME280;43999;51.660;5.616;2022-07-23T12:21:04;101798.53;;;26.24;44.36
59103;BME280;43999;51.660;5.616;2022-07-23T12:23:39;101802.22;;;26.23;43.93
59103;BME280;43999;51.660;5.616;2022-07-23T12:26:07;101796.28;;;26.11;43.21
59103;BME280;43999;51.660;5.616;2022-07-23T12:28:38;101787.13;;;25.96;44.18
59103;BME280;43999;51.660;5.616;2022-07-23T12:31:06;101794.31;;;25.87;44.66
59103;BME280;43999;51.660;5.616;2022-07-23T12:33:37;101799.47;;;25.81;44.86
59103;BME280;43999;51.660;5.616;2022-07-23T12:36:09;101796.09;;;25.70;44.08
59103;BME280;43999;51.660;5.616;2022-07-23T12:38:46;101792.03;;;25.66;44.06
59103;BME280;43999;51.660;5.616;2022-07-23T12:41:16;101790.00;;;25.68;43.60
59103;BME280;43999;51.660;5.616;2022-07-23T12:43:45;101784.31;;;25.71;44.11
59103;BME280;43999;51.660;5.616;2022-07-23T12:46:21;101783.84;;;25.76;43.25
59103;BME280;43999;51.660;5.616;2022-07-23T12:51:24;101781.00;;;25.77;42.41
59103;BME280;43999;51.660;5.616;2022-07-23T12:54:06;101774.13;;;25.75;42.83
59103;BME280;43999;51.660;5.616;2022-07-23T12:56:39;101776.28;;;25.71;44.38
59103;BME280;43999;51.660;5.616;2022-07-23T12:59:15;101777.13;;;25.72;44.97
59103;BME280;43999;51.660;5.616;2022-07-23T13:01:55;101780.16;;;25.77;43.91
59103;BME280;43999;51.660;5.616;2022-07-23T13:04:28;101764.56;;;25.81;43.66
59103;BME280;43999;51.660;5.616;2022-07-23T13:07:00;101768.78;;;25.83;43.52
59103;BME280;43999;51.660;5.616;2022-07-23T13:09:33;101773.34;;;25.91;43.48
59103;BME280;43999;51.660;5.616;2022-07-23T13:12:09;101771.44;;;26.09;42.50
59103;BME280;43999;51.660;5.616;2022-07-23T13:14:38;101765.31;;;26.34;41.34
59103;BME280;43999;51.660;5.616;2022-07-23T13:17:09;101772.72;;;26.56;40.76
59103;BME280;43999;51.660;5.616;2022-07-23T13:19:36;101776.84;;;26.85;39.57
59103;BME280;43999;51.660;5.616;2022-07-23T13:22:03;101781.22;;;26.94;39.81
59103;BME280;43999;51.660;5.616;2022-07-23T13:24:36;101781.22;;;26.94;39.76
59103;BME280;43999;51.660;5.616;2022-07-23T13:27:23;101784.88;;;27.26;39.35
59103;BME280;43999;51.660;5.616;2022-07-23T13:29:51;101773.09;;;27.52;39.36
59103;BME280;43999;51.660;5.616;2022-07-23T13:32:19;101780.19;;;28.01;39.04